sensor_id;sensor_type;location;lat;lon;timestamp;temperature;humidity
21666;DHT22;10994;45.486;9.190;2022-08-19T00:00:07;23.10;99.90
21666;DHT22;10994;45.486;9.190;2022-08-19T00:02:34;23.00;99.90
21666;DHT22;10994;45.486;9.190;2022-08-19T00:05:00;23.00;99.90
21666;DHT22;10994;45.486;9.190;2022-08-19T00:07:25;23.00;99.90
21666;DHT22;10994;45.486;9.190;2022-08-19T00:09:51;23.10;99.90
21666;DHT22;10994;45.486;9.190;2022-08-19T00:12:17;23.30;99.90
21666;DHT22;10994;45.486;9.190;2022-08-19T00:14:43;23.20;99.90
21666;DHT22;10994;45.486;9.190;2022-08-19T00:17:09;23.10;99.90
21666;DHT22;10994;45.486;9.190;2022-08-19T00:19:36;23.10;99.90
21666;DHT22;10994;45.486;9.190;2022-08-19T00:22:02;23.10;99.90
21666;DHT22;10994;45.486;9.190;2022-08-19T00:24:29;23.20;99.90
21666;DHT22;10994;45.486;9.190;2022-08-19T00:26:55;23.20;99.90
21666;DHT22;10994;45.486;9.190;2022-08-19T00:29:23;23.30;99.90
21666;DHT22;10994;45.486;9.190;2022-08-19T00:31:50;23.30;99.90
21666;DHT22;10994;45.486;9.190;2022-08-19T00:34:18;23.40;99.90
21666;DHT22;10994;45.486;9.190;2022-08-19T00:36:45;23.50;99.90
21666;DHT22;10994;45.486;9.190;2022-08-19T00:39:12;23.60;99.90
21666;DHT22;10994;45.486;9.190;2022-08-19T00:41:40;23.60;99.90
21666;DHT22;10994;45.486;9.190;2022-08-19T00:44:12;23.60;99.90
21666;DHT22;10994;45.486;9.190;2022-08-19T00:46:40;23.50;99.90
21666;DHT22;10994;45.486;9.190;2022-08-19T00:49:16;23.50;99.90
21666;DHT22;10994;45.486;9.190;2022-08-19T00:51:47;23.50;99.90
21666;DHT22;10994;45.486;9.190;2022-08-19T00:54:14;23.50;99.90
21666;DHT22;10994;45.486;9.190;2022-08-19T00:56:40;23.50;99.90
21666;DHT22;10994;45.486;9.190;2022-08-19T00:59:06;23.60;99.90
21666;DHT22;10994;45.486;9.190;2022-08-19T01:01:39;23.60;99.90
21666;DHT22;10994;45.486;9.190;2022-08-19T01:04:06;23.70;99.90
21666;DHT22;10994;45.486;9.190;2022-08-19T01:06:32;23.60;99.90
21666;DHT22;10994;45.486;9.190;2022-08-19T01:08:59;23.60;99.90
21666;DHT22;10994;45.486;9.190;2022-08-19T01:11:27;23.70;99.90
21666;DHT22;10994;45.486;9.190;2022-08-19T01:13:54;23.70;99.90
21666;DHT22;10994;45.486;9.190;2022-08-19T01:16:22;23.70;99.90
21666;DHT22;10994;45.486;9.190;2022-08-19T01:18:49;23.80;99.90
21666;DHT22;10994;45.486;9.190;2022-08-19T01:21:37;23.70;99.90
21666;DHT22;10994;45.486;9.190;2022-08-19T01:24:04;23.70;99.90
21666;DHT22;10994;45.486;9.190;2022-08-19T01:26:30;23.70;99.90
21666;DHT22;10994;45.486;9.190;2022-08-19T01:28:58;23.70;99.90
21666;DHT22;10994;45.486;9.190;2022-08-19T01:31:29;23.70;99.90
21666;DHT22;10994;45.486;9.190;2022-08-19T01:33:57;23.70;99.90
21666;DHT22;10994;45.486;9.190;2022-08-19T01:36:31;23.80;99.90
21666;DHT22;10994;45.486;9.190;2022-08-19T01:38:57;23.80;99.90
21666;DHT22;10994;45.486;9.190;2022-08-19T01:41:25;23.70;99.90
21666;DHT22;10994;45.486;9.190;2022-08-19T01:43:52;23.60;99.90
21666;DHT22;10994;45.486;9.190;2022-08-19T01:46:19;23.50;99.90
21666;DHT22;10994;45.486;9.190;2022-08-19T01:48:45;23.50;99.90
21666;DHT22;10994;45.486;9.190;2022-08-19T01:51:11;23.40;99.90
21666;DHT22;10994;45.486;9.190;2022-08-19T01:53:38;23.40;99.90
21666;DHT22;10994;45.486;9.190;2022-08-19T01:56:05;23.20;99.90
21666;DHT22;10994;45.486;9.190;2022-08-19T01:58:41;23.20;99.90
21666;DHT22;10994;45.486;9.190;2022-08-19T02:01:11;23.20;99.90
21666;DHT22;10994;45.486;9.190;2022-08-19T02:03:38;23.20;99.90
21666;DHT22;10994;45.486;9.190;2022-08-19T02:06:04;23.20;99.90
21666;DHT22;10994;45.486;9.190;2022-08-19T02:08:32;23.30;99.90
21666;DHT22;10994;45.486;9.190;2022-08-19T02:10:57;23.30;99.90
21666;DHT22;10994;45.486;9.190;2022-08-19T02:13:25;23.30;99.90
21666;DHT22;10994;45.486;9.190;2022-08-19T02:15:51;23.20;99.90
21666;DHT22;10994;45.486;9.190;2022-08-19T02:18:16;23.00;99.90
21666;DHT22;10994;45.486;9.190;2022-08-19T02:20:43;23.00;99.90
21666;DHT22;10994;45.486;9.190;2022-08-19T02:23:11;23.00;99.90
21666;DHT22;10994;45.486;9.190;2022-08-19T02:25:37;23.00;99.90
21666;DHT22;10994;45.486;9.190;2022-08-19T02:28:04;22.90;99.90
21666;DHT22;10994;45.486;9.190;2022-08-19T02:30:31;22.90;99.90
21666;DHT22;10994;45.486;9.190;2022-08-19T02:32:59;22.90;99.90
21666;DHT22;10994;45.486;9.190;2022-08-19T02:35:25;23.00;99.90
21666;DHT22;10994;45.486;9.190;2022-08-19T02:37:51;23.10;99.90
21666;DHT22;10994;45.486;9.190;2022-08-19T02:40:36;23.00;99.90
21666;DHT22;10994;45.486;9.190;2022-08-19T02:43:03;23.00;99.90
21666;DHT22;10994;45.486;9.190;2022-08-19T02:45:36;23.10;99.90
21666;DHT22;10994;45.486;9.190;2022-08-19T02:48:03;23.10;99.90
21666;DHT22;10994;45.486;9.190;2022-08-19T02:50:29;23.20;99.90
21666;DHT22;10994;45.486;9.190;2022-08-19T02:52:55;23.10;99.90
21666;DHT22;10994;45.486;9.190;2022-08-19T02:55:21;23.00;99.90
21666;DHT22;10994;45.486;9.190;2022-08-19T02:57:47;22.90;99.90
21666;DHT22;10994;45.486;9.190;2022-08-19T03:00:13;23.00;99.90
21666;DHT22;10994;45.486;9.190;2022-08-19T03:02:40;23.00;99.90
21666;DHT22;10994;45.486;9.190;2022-08-19T03:05:07;23.00;99.90
21666;DHT22;10994;45.486;9.190;2022-08-19T03:07:34;23.00;99.90
21666;DHT22;10994;45.486;9.190;2022-08-19T03:09:59;22.90;99.90
21666;DHT22;10994;45.486;9.190;2022-08-19T03:12:25;22.80;99.90
21666;DHT22;10994;45.486;9.190;2022-08-19T03:14:51;22.80;99.90
21666;DHT22;10994;45.486;9.190;2022-08-19T03:17:17;22.90;99.90
21666;DHT22;10994;45.486;9.190;2022-08-19T03:19:43;23.00;99.90
21666;DHT22;10994;45.486;9.190;2022-08-19T03:22:09;23.20;99.90
21666;DHT22;10994;45.486;9.190;2022-08-19T03:24:35;23.20;99.90
21666;DHT22;10994;45.486;9.190;2022-08-19T03:27:00;23.10;99.90
21666;DHT22;10994;45.486;9.190;2022-08-19T03:29:28;23.10;99.90
21666;DHT22;10994;45.486;9.190;2022-08-19T03:31:54;23.20;99.90
21666;DHT22;10994;45.486;9.190;2022-08-19T03:34:23;23.20;99.90
21666;DHT22;10994;45.486;9.190;2022-08-19T03:36:56;23.30;99.90
21666;DHT22;10994;45.486;9.190;2022-08-19T03:39:23;23.30;99.90
21666;DHT22;10994;45.486;9.190;2022-08-19T03:41:51;23.20;99.90
21666;DHT22;10994;45.486;9.190;2022-08-19T03:44:19;23.10;99.90
21666;DHT22;10994;45.486;9.190;2022-08-19T03:46:56;23.10;99.90
21666;DHT22;10994;45.486;9.190;2022-08-19T03:49:24;23.10;99.90
21666;DHT22;10994;45.486;9.190;2022-08-19T03:51:50;23.10;99.90
21666;DHT22;10994;45.486;9.190;2022-08-19T03:54:20;23.10;99.90
21666;DHT22;10994;45.486;9.190;2022-08-19T03:56:47;23.00;99.90
21666;DHT22;10994;45.486;9.190;2022-08-19T03:59:34;23.00;99.90
21666;DHT22;10994;45.486;9.190;2022-08-19T04:02:03;22.90;99.90
21666;DHT22;10994;45.486;9.190;2022-08-19T04:04:31;22.70;99.90
21666;DHT22;10994;45.486;9.190;2022-08-19T04:06:56;22.80;99.90
21666;DHT22;10994;45.486;9.190;2022-08-19T04:09:22;23.00;99.90
21666;DHT22;10994;45.486;9.190;2022-08-19T04:11:51;23.10;99.90
21666;DHT22;10994;45.486;9.190;2022-08-19T04:14:20;23.20;99.90
21666;DHT22;10994;45.486;9.190;2022-08-19T04:16:47;23.20;99.90
21666;DHT22;10994;45.486;9.190;2022-08-19T04:19:14;23.20;99.90
21666;DHT22;10994;45.486;9.190;2022-08-19T04:21:42;23.20;99.90
21666;DHT22;10994;45.486;9.190;2022-08-19T04:24:09;23.10;99.90
21666;DHT22;10994;45.486;9.190;2022-08-19T04:26:35;23.10;99.90
21666;DHT22;10994;45.486;9.190;2022-08-19T04:29:26;23.00;99.90
21666;DHT22;10994;45.486;9.190;2022-08-19T04:31:54;23.00;99.90
21666;DHT22;10994;45.486;9.190;2022-08-19T04:34:22;23.10;99.90
21666;DHT22;10994;45.486;9.190;2022-08-19T04:36:50;23.20;99.90
21666;DHT22;10994;45.486;9.190;2022-08-19T04:39:19;23.20;99.90
21666;DHT22;10994;45.486;9.190;2022-08-19T04:41:46;23.10;99.90
21666;DHT22;10994;45.486;9.190;2022-08-19T04:44:33;23.00;99.90
21666;DHT22;10994;45.486;9.190;2022-08-19T04:47:00;22.90;99.90
21666;DHT22;10994;45.486;9.190;2022-08-19T04:49:25;22.90;99.90
21666;DHT22;10994;45.486;9.190;2022-08-19T04:51:53;22.80;99.90
21666;DHT22;10994;45.486;9.190;2022-08-19T04:54:23;22.80;99.90
21666;DHT22;10994;45.486;9.190;2022-08-19T04:56:51;22.90;99.90
21666;DHT22;10994;45.486;9.190;2022-08-19T04:59:18;22.90;99.90
21666;DHT22;10994;45.486;9.190;2022-08-19T05:01:44;22.80;99.90
21666;DHT22;10994;45.486;9.190;2022-08-19T05:04:17;22.80;99.90
21666;DHT22;10994;45.486;9.190;2022-08-19T05:06:42;22.70;99.90
21666;DHT22;10994;45.486;9.190;2022-08-19T05:09:08;22.70;99.90
21666;DHT22;10994;45.486;9.190;2022-08-19T05:11:36;22.80;99.90
21666;DHT22;10994;45.486;9.190;2022-08-19T05:14:07;22.90;99.90
21666;DHT22;10994;45.486;9.190;2022-08-19T05:16:33;23.00;99.90
21666;DHT22;10994;45.486;9.190;2022-08-19T05:18:59;23.10;99.90
21666;DHT22;10994;45.486;9.190;2022-08-19T05:21:43;23.00;99.90
21666;DHT22;10994;45.486;9.190;2022-08-19T05:24:28;22.80;99.90
21666;DHT22;10994;45.486;9.190;2022-08-19T05:26:55;22.70;99.90
21666;DHT22;10994;45.486;9.190;2022-08-19T05:29:26;22.80;99.90
21666;DHT22;10994;45.486;9.190;2022-08-19T05:31:54;22.70;99.90
21666;DHT22;10994;45.486;9.190;2022-08-19T05:34:22;22.60;99.90
21666;DHT22;10994;45.486;9.190;2022-08-19T05:36:51;22.70;99.90
21666;DHT22;10994;45.486;9.190;2022-08-19T05:39:24;22.60;99.90
21666;DHT22;10994;45.486;9.190;2022-08-19T05:41:55;22.60;99.90
21666;DHT22;10994;45.486;9.190;2022-08-19T05:44:27;22.50;99.90
21666;DHT22;10994;45.486;9.190;2022-08-19T05:46:55;22.40;99.90
21666;DHT22;10994;45.486;9.190;2022-08-19T05:49:22;22.40;99.90
21666;DHT22;10994;45.486;9.190;2022-08-19T05:51:48;22.30;99.90
21666;DHT22;10994;45.486;9.190;2022-08-19T05:54:14;22.30;99.90
21666;DHT22;10994;45.486;9.190;2022-08-19T05:56:41;22.30;99.90
21666;DHT22;10994;45.486;9.190;2022-08-19T05:59:09;22.40;99.90
21666;DHT22;10994;45.486;9.190;2022-08-19T06:01:42;22.50;99.90
21666;DHT22;10994;45.486;9.190;2022-08-19T06:04:09;22.50;99.90
21666;DHT22;10994;45.486;9.190;2022-08-19T06:06:35;22.50;99.90
21666;DHT22;10994;45.486;9.190;2022-08-19T06:09:03;22.60;99.90
21666;DHT22;10994;45.486;9.190;2022-08-19T06:11:43;22.70;99.90
21666;DHT22;10994;45.486;9.190;2022-08-19T06:14:12;22.70;99.90
21666;DHT22;10994;45.486;9.190;2022-08-19T06:16:39;22.70;99.90
21666;DHT22;10994;45.486;9.190;2022-08-19T06:19:08;22.60;99.90
21666;DHT22;10994;45.486;9.190;2022-08-19T06:21:37;22.50;99.90
21666;DHT22;10994;45.486;9.190;2022-08-19T06:24:05;22.60;99.90
21666;DHT22;10994;45.486;9.190;2022-08-19T06:26:34;22.60;99.90
21666;DHT22;10994;45.486;9.190;2022-08-19T06:29:00;22.60;99.90
21666;DHT22;10994;45.486;9.190;2022-08-19T06:31:28;22.60;99.90
21666;DHT22;10994;45.486;9.190;2022-08-19T06:33:54;22.60;99.90
21666;DHT22;10994;45.486;9.190;2022-08-19T06:36:29;22.50;99.90
21666;DHT22;10994;45.486;9.190;2022-08-19T06:39:09;22.50;99.90
21666;DHT22;10994;45.486;9.190;2022-08-19T06:41:43;22.40;99.90
21666;DHT22;10994;45.486;9.190;2022-08-19T06:44:16;22.30;99.90
21666;DHT22;10994;45.486;9.190;2022-08-19T06:46:43;22.40;99.90
21666;DHT22;10994;45.486;9.190;2022-08-19T06:49:09;22.30;99.90
21666;DHT22;10994;45.486;9.190;2022-08-19T06:51:39;22.40;99.90
21666;DHT22;10994;45.486;9.190;2022-08-19T06:54:05;22.40;99.90
21666;DHT22;10994;45.486;9.190;2022-08-19T06:56:31;22.30;99.90
21666;DHT22;10994;45.486;9.190;2022-08-19T06:59:05;22.20;99.90
21666;DHT22;10994;45.486;9.190;2022-08-19T07:01:38;22.20;99.90
21666;DHT22;10994;45.486;9.190;2022-08-19T07:04:06;22.20;99.90
21666;DHT22;10994;45.486;9.190;2022-08-19T07:06:32;22.20;99.90
21666;DHT22;10994;45.486;9.190;2022-08-19T07:08:58;22.40;99.90
21666;DHT22;10994;45.486;9.190;2022-08-19T07:11:24;22.50;99.90
21666;DHT22;10994;45.486;9.190;2022-08-19T07:13:50;22.60;99.90
21666;DHT22;10994;45.486;9.190;2022-08-19T07:16:19;22.50;99.90
21666;DHT22;10994;45.486;9.190;2022-08-19T07:18:46;22.60;99.90
21666;DHT22;10994;45.486;9.190;2022-08-19T07:21:25;22.70;99.90
21666;DHT22;10994;45.486;9.190;2022-08-19T07:23:54;22.90;99.90
21666;DHT22;10994;45.486;9.190;2022-08-19T07:26:29;22.90;99.90
21666;DHT22;10994;45.486;9.190;2022-08-19T07:28:56;22.90;99.90
21666;DHT22;10994;45.486;9.190;2022-08-19T07:31:24;22.90;99.90
21666;DHT22;10994;45.486;9.190;2022-08-19T07:33:55;22.80;99.90
21666;DHT22;10994;45.486;9.190;2022-08-19T07:36:25;22.70;99.90
21666;DHT22;10994;45.486;9.190;2022-08-19T07:38:58;22.70;99.90
21666;DHT22;10994;45.486;9.190;2022-08-19T07:41:26;22.60;99.90
21666;DHT22;10994;45.486;9.190;2022-08-19T07:43:54;22.70;99.90
21666;DHT22;10994;45.486;9.190;2022-08-19T07:46:20;22.70;99.90
21666;DHT22;10994;45.486;9.190;2022-08-19T07:48:47;22.70;99.90
21666;DHT22;10994;45.486;9.190;2022-08-19T07:51:18;22.80;99.90
21666;DHT22;10994;45.486;9.190;2022-08-19T07:53:44;22.90;99.90
21666;DHT22;10994;45.486;9.190;2022-08-19T07:56:12;22.90;99.90
21666;DHT22;10994;45.486;9.190;2022-08-19T07:58:42;23.00;99.90
21666;DHT22;10994;45.486;9.190;2022-08-19T08:01:11;23.00;99.90
21666;DHT22;10994;45.486;9.190;2022-08-19T08:03:37;23.10;99.90
21666;DHT22;10994;45.486;9.190;2022-08-19T08:06:21;23.20;99.90
21666;DHT22;10994;45.486;9.190;2022-08-19T08:09:06;23.10;99.90
21666;DHT22;10994;45.486;9.190;2022-08-19T08:12:04;23.20;99.90
21666;DHT22;10994;45.486;9.190;2022-08-19T08:14:43;23.20;99.90
21666;DHT22;10994;45.486;9.190;2022-08-19T08:17:10;23.40;99.90
21666;DHT22;10994;45.486;9.190;2022-08-19T08:19:37;23.30;99.90
21666;DHT22;10994;45.486;9.190;2022-08-19T08:22:03;23.20;99.90
21666;DHT22;10994;45.486;9.190;2022-08-19T08:24:32;23.20;99.90
21666;DHT22;10994;45.486;9.190;2022-08-19T08:26:59;23.30;99.90
21666;DHT22;10994;45.486;9.190;2022-08-19T08:29:29;23.50;99.90
21666;DHT22;10994;45.486;9.190;2022-08-19T08:31:55;23.70;99.90
21666;DHT22;10994;45.486;9.190;2022-08-19T08:34:21;23.70;99.90
21666;DHT22;10994;45.486;9.190;2022-08-19T08:36:48;23.70;99.90
21666;DHT22;10994;45.486;9.190;2022-08-19T08:39:18;23.80;99.90
21666;DHT22;10994;45.486;9.190;2022-08-19T08:42:14;23.80;99.90
21666;DHT22;10994;45.486;9.190;2022-08-19T08:47:20;23.70;99.90
21666;DHT22;10994;45.486;9.190;2022-08-19T08:49:53;23.80;99.90
21666;DHT22;10994;45.486;9.190;2022-08-19T08:52:29;23.70;99.90
21666;DHT22;10994;45.486;9.190;2022-08-19T08:54:59;23.80;99.90
21666;DHT22;10994;45.486;9.190;2022-08-19T08:57:30;23.80;99.90
21666;DHT22;10994;45.486;9.190;2022-08-19T09:00:00;23.70;99.90
21666;DHT22;10994;45.486;9.190;2022-08-19T09:02:28;23.70;99.90
21666;DHT22;10994;45.486;9.190;2022-08-19T09:04:54;23.90;99.90
21666;DHT22;10994;45.486;9.190;2022-08-19T09:07:39;23.90;99.90
21666;DHT22;10994;45.486;9.190;2022-08-19T09:15:56;23.90;99.90
21666;DHT22;10994;45.486;9.190;2022-08-19T09:18:23;23.80;99.90
21666;DHT22;10994;45.486;9.190;2022-08-19T09:20:49;23.90;99.90
21666;DHT22;10994;45.486;9.190;2022-08-19T09:23:15;23.90;99.90
21666;DHT22;10994;45.486;9.190;2022-08-19T09:25:44;24.00;99.90
21666;DHT22;10994;45.486;9.190;2022-08-19T09:28:10;24.10;99.90
21666;DHT22;10994;45.486;9.190;2022-08-19T09:30:40;24.30;99.90
21666;DHT22;10994;45.486;9.190;2022-08-19T09:33:07;24.50;99.90
21666;DHT22;10994;45.486;9.190;2022-08-19T09:35:33;24.50;99.90
21666;DHT22;10994;45.486;9.190;2022-08-19T09:38:00;24.50;99.90
21666;DHT22;10994;45.486;9.190;2022-08-19T09:40:31;24.70;99.90
21666;DHT22;10994;45.486;9.190;2022-08-19T09:42:58;24.70;99.90
21666;DHT22;10994;45.486;9.190;2022-08-19T09:45:28;24.60;99.90
21666;DHT22;10994;45.486;9.190;2022-08-19T09:47:54;24.70;99.90
21666;DHT22;10994;45.486;9.190;2022-08-19T09:50:20;24.70;99.90
21666;DHT22;10994;45.486;9.190;2022-08-19T09:52:47;24.60;99.90
21666;DHT22;10994;45.486;9.190;2022-08-19T09:55:13;24.60;99.90
21666;DHT22;10994;45.486;9.190;2022-08-19T09:57:39;24.50;99.90
21666;DHT22;10994;45.486;9.190;2022-08-19T10:00:07;24.60;99.90
21666;DHT22;10994;45.486;9.190;2022-08-19T10:02:35;24.60;99.90
21666;DHT22;10994;45.486;9.190;2022-08-19T10:05:01;24.80;99.90
21666;DHT22;10994;45.486;9.190;2022-08-19T10:07:48;24.90;99.90
21666;DHT22;10994;45.486;9.190;2022-08-19T10:10:14;24.80;99.90
21666;DHT22;10994;45.486;9.190;2022-08-19T10:12:39;24.80;99.90
21666;DHT22;10994;45.486;9.190;2022-08-19T10:15:06;24.90;99.90
21666;DHT22;10994;45.486;9.190;2022-08-19T10:17:33;25.10;99.90
21666;DHT22;10994;45.486;9.190;2022-08-19T10:20:00;25.20;99.90
21666;DHT22;10994;45.486;9.190;2022-08-19T10:22:28;25.30;99.90
21666;DHT22;10994;45.486;9.190;2022-08-19T10:24:54;25.20;99.90
21666;DHT22;10994;45.486;9.190;2022-08-19T10:27:19;25.30;99.90
21666;DHT22;10994;45.486;9.190;2022-08-19T10:29:45;25.40;99.90
21666;DHT22;10994;45.486;9.190;2022-08-19T10:32:12;25.50;99.90
21666;DHT22;10994;45.486;9.190;2022-08-19T10:34:39;25.70;99.90
21666;DHT22;10994;45.486;9.190;2022-08-19T10:37:06;25.70;99.90
21666;DHT22;10994;45.486;9.190;2022-08-19T10:39:33;25.70;99.90
21666;DHT22;10994;45.486;9.190;2022-08-19T10:42:03;25.70;99.90
21666;DHT22;10994;45.486;9.190;2022-08-19T10:44:29;25.70;99.90
21666;DHT22;10994;45.486;9.190;2022-08-19T10:46:55;25.80;99.90
21666;DHT22;10994;45.486;9.190;2022-08-19T10:49:21;25.80;99.90
21666;DHT22;10994;45.486;9.190;2022-08-19T10:51:49;25.90;99.90
21666;DHT22;10994;45.486;9.190;2022-08-19T10:54:33;25.80;99.90
21666;DHT22;10994;45.486;9.190;2022-08-19T10:57:17;25.70;99.90
21666;DHT22;10994;45.486;9.190;2022-08-19T10:59:43;25.90;99.90
21666;DHT22;10994;45.486;9.190;2022-08-19T11:02:11;25.90;99.90
21666;DHT22;10994;45.486;9.190;2022-08-19T11:04:38;26.00;99.90
21666;DHT22;10994;45.486;9.190;2022-08-19T11:07:08;26.00;99.90
21666;DHT22;10994;45.486;9.190;2022-08-19T11:09:41;25.90;99.90
21666;DHT22;10994;45.486;9.190;2022-08-19T11:12:08;25.90;99.90
21666;DHT22;10994;45.486;9.190;2022-08-19T11:14:35;25.90;99.90
21666;DHT22;10994;45.486;9.190;2022-08-19T11:17:03;25.90;99.90
21666;DHT22;10994;45.486;9.190;2022-08-19T11:19:29;26.20;99.90
21666;DHT22;10994;45.486;9.190;2022-08-19T11:21:55;26.40;99.90
21666;DHT22;10994;45.486;9.190;2022-08-19T11:24:24;26.20;99.90
21666;DHT22;10994;45.486;9.190;2022-08-19T11:26:51;26.00;99.90
21666;DHT22;10994;45.486;9.190;2022-08-19T11:29:20;26.00;99.90
21666;DHT22;10994;45.486;9.190;2022-08-19T11:31:48;26.10;99.90
21666;DHT22;10994;45.486;9.190;2022-08-19T11:34:20;26.10;99.90
21666;DHT22;10994;45.486;9.190;2022-08-19T11:36:46;26.30;99.90
21666;DHT22;10994;45.486;9.190;2022-08-19T11:39:15;26.40;99.90
21666;DHT22;10994;45.486;9.190;2022-08-19T11:41:41;26.40;99.90
21666;DHT22;10994;45.486;9.190;2022-08-19T11:44:07;26.50;99.90
21666;DHT22;10994;45.486;9.190;2022-08-19T11:46:35;26.60;99.90
21666;DHT22;10994;45.486;9.190;2022-08-19T11:49:03;26.70;99.90
21666;DHT22;10994;45.486;9.190;2022-08-19T11:51:30;26.80;99.90
21666;DHT22;10994;45.486;9.190;2022-08-19T11:53:57;26.80;99.90
21666;DHT22;10994;45.486;9.190;2022-08-19T11:56:24;26.80;99.90
21666;DHT22;10994;45.486;9.190;2022-08-19T11:58:51;26.90;99.90
21666;DHT22;10994;45.486;9.190;2022-08-19T12:01:19;26.80;99.90
21666;DHT22;10994;45.486;9.190;2022-08-19T12:03:47;26.80;99.90
21666;DHT22;10994;45.486;9.190;2022-08-19T12:06:19;26.90;99.90
21666;DHT22;10994;45.486;9.190;2022-08-19T12:08:46;26.70;99.90
21666;DHT22;10994;45.486;9.190;2022-08-19T12:11:13;26.60;99.90
21666;DHT22;10994;45.486;9.190;2022-08-19T12:13:39;26.60;99.90
21666;DHT22;10994;45.486;9.190;2022-08-19T12:16:27;26.80;99.90
21666;DHT22;10994;45.486;9.190;2022-08-19T12:18:54;27.10;99.90
21666;DHT22;10994;45.486;9.190;2022-08-19T12:21:23;27.30;99.90
21666;DHT22;10994;45.486;9.190;2022-08-19T12:23:51;27.30;99.90
21666;DHT22;10994;45.486;9.190;2022-08-19T12:26:17;27.50;99.90
21666;DHT22;10994;45.486;9.190;2022-08-19T12:28:44;27.60;99.90
21666;DHT22;10994;45.486;9.190;2022-08-19T12:31:10;27.50;99.90
21666;DHT22;10994;45.486;9.190;2022-08-19T12:33:41;27.30;99.90
21666;DHT22;10994;45.486;9.190;2022-08-19T12:36:10;27.40;99.90
21666;DHT22;10994;45.486;9.190;2022-08-19T12:38:37;27.60;99.90
21666;DHT22;10994;45.486;9.190;2022-08-19T12:41:04;27.60;99.90
21666;DHT22;10994;45.486;9.190;2022-08-19T12:43:36;27.70;99.90
21666;DHT22;10994;45.486;9.190;2022-08-19T12:46:03;27.90;99.90
21666;DHT22;10994;45.486;9.190;2022-08-19T12:48:30;28.00;99.90
21666;DHT22;10994;45.486;9.190;2022-08-19T12:50:56;28.10;99.90
21666;DHT22;10994;45.486;9.190;2022-08-19T12:53:22;28.10;99.90
21666;DHT22;10994;45.486;9.190;2022-08-19T12:55:54;27.90;99.90
21666;DHT22;10994;45.486;9.190;2022-08-19T12:58:21;27.80;99.90
21666;DHT22;10994;45.486;9.190;2022-08-19T13:00:47;28.10;99.90
21666;DHT22;10994;45.486;9.190;2022-08-19T13:03:14;28.40;99.90
21666;DHT22;10994;45.486;9.190;2022-08-19T13:05:40;28.60;99.90
21666;DHT22;10994;45.486;9.190;2022-08-19T13:08:06;28.60;99.90
21666;DHT22;10994;45.486;9.190;2022-08-19T13:10:34;28.60;99.90
21666;DHT22;10994;45.486;9.190;2022-08-19T13:13:05;28.80;99.90
21666;DHT22;10994;45.486;9.190;2022-08-19T13:15:37;29.20;99.90
21666;DHT22;10994;45.486;9.190;2022-08-19T13:18:06;28.90;99.90
21666;DHT22;10994;45.486;9.190;2022-08-19T13:20:32;28.70;99.90
21666;DHT22;10994;45.486;9.190;2022-08-19T13:22:58;28.90;99.90
21666;DHT22;10994;45.486;9.190;2022-08-19T13:25:24;29.00;99.90
21666;DHT22;10994;45.486;9.190;2022-08-19T13:27:50;29.00;99.90
21666;DHT22;10994;45.486;9.190;2022-08-19T13:30:17;29.00;99.90
21666;DHT22;10994;45.486;9.190;2022-08-19T13:33:03;29.00;99.90
21666;DHT22;10994;45.486;9.190;2022-08-19T13:35:43;29.00;99.90
21666;DHT22;10994;45.486;9.190;2022-08-19T13:38:09;29.10;99.90
21666;DHT22;10994;45.486;9.190;2022-08-19T13:40:36;28.60;99.90
21666;DHT22;10994;45.486;9.190;2022-08-19T13:43:03;28.50;99.90
21666;DHT22;10994;45.486;9.190;2022-08-19T13:45:30;28.40;99.90
21666;DHT22;10994;45.486;9.190;2022-08-19T13:47:59;28.40;99.90
21666;DHT22;10994;45.486;9.190;2022-08-19T13:50:27;28.20;99.90
21666;DHT22;10994;45.486;9.190;2022-08-19T13:52:54;28.30;99.90
21666;DHT22;10994;45.486;9.190;2022-08-19T13:55:22;28.60;99.90
21666;DHT22;10994;45.486;9.190;2022-08-19T13:57:58;28.70;99.90
21666;DHT22;10994;45.486;9.190;2022-08-19T14:00:27;28.90;99.90
21666;DHT22;10994;45.486;9.190;2022-08-19T14:02:55;29.10;99.90
21666;DHT22;10994;45.486;9.190;2022-08-19T14:05:22;29.10;99.90
21666;DHT22;10994;45.486;9.190;2022-08-19T14:07:48;29.00;99.90
21666;DHT22;10994;45.486;9.190;2022-08-19T14:10:14;28.90;99.90
21666;DHT22;10994;45.486;9.190;2022-08-19T14:12:40;28.80;99.90
21666;DHT22;10994;45.486;9.190;2022-08-19T14:15:09;28.80;99.90
21666;DHT22;10994;45.486;9.190;2022-08-19T14:17:38;28.70;99.90
21666;DHT22;10994;45.486;9.190;2022-08-19T14:20:05;28.90;99.90
21666;DHT22;10994;45.486;9.190;2022-08-19T14:22:39;29.10;99.90
21666;DHT22;10994;45.486;9.190;2022-08-19T14:25:07;29.20;99.90
21666;DHT22;10994;45.486;9.190;2022-08-19T14:27:34;29.20;99.90
21666;DHT22;10994;45.486;9.190;2022-08-19T14:30:00;29.40;99.90
21666;DHT22;10994;45.486;9.190;2022-08-19T14:32:27;29.50;99.90
21666;DHT22;10994;45.486;9.190;2022-08-19T14:34:53;29.40;99.90
21666;DHT22;10994;45.486;9.190;2022-08-19T14:37:19;29.40;99.90
21666;DHT22;10994;45.486;9.190;2022-08-19T14:39:47;29.40;99.90
21666;DHT22;10994;45.486;9.190;2022-08-19T14:42:12;29.50;99.90
21666;DHT22;10994;45.486;9.190;2022-08-19T14:44:41;29.40;99.90
21666;DHT22;10994;45.486;9.190;2022-08-19T14:47:07;29.20;99.90
21666;DHT22;10994;45.486;9.190;2022-08-19T14:49:33;29.20;99.90
21666;DHT22;10994;45.486;9.190;2022-08-19T14:51:59;29.10;99.90
21666;DHT22;10994;45.486;9.190;2022-08-19T14:54:25;29.20;99.90
21666;DHT22;10994;45.486;9.190;2022-08-19T14:56:51;29.20;99.90
21666;DHT22;10994;45.486;9.190;2022-08-19T14:59:16;29.20;99.90
21666;DHT22;10994;45.486;9.190;2022-08-19T15:01:42;29.10;99.90
21666;DHT22;10994;45.486;9.190;2022-08-19T15:04:08;28.90;99.90
21666;DHT22;10994;45.486;9.190;2022-08-19T15:06:34;28.70;99.90
21666;DHT22;10994;45.486;9.190;2022-08-19T15:09:00;28.50;99.90
21666;DHT22;10994;45.486;9.190;2022-08-19T15:11:28;28.60;99.90
21666;DHT22;10994;45.486;9.190;2022-08-19T15:13:55;28.70;99.90
21666;DHT22;10994;45.486;9.190;2022-08-19T15:16:22;28.60;99.90
21666;DHT22;10994;45.486;9.190;2022-08-19T15:18:51;28.50;99.90
21666;DHT22;10994;45.486;9.190;2022-08-19T15:21:17;28.50;99.90
21666;DHT22;10994;45.486;9.190;2022-08-19T15:23:44;28.60;99.90
21666;DHT22;10994;45.486;9.190;2022-08-19T15:26:10;28.50;99.90
21666;DHT22;10994;45.486;9.190;2022-08-19T15:28:36;28.50;99.90
21666;DHT22;10994;45.486;9.190;2022-08-19T15:31:03;28.40;99.90
21666;DHT22;10994;45.486;9.190;2022-08-19T15:33:31;28.50;99.90
21666;DHT22;10994;45.486;9.190;2022-08-19T15:35:57;28.50;99.90
21666;DHT22;10994;45.486;9.190;2022-08-19T15:38:24;28.50;99.90
21666;DHT22;10994;45.486;9.190;2022-08-19T15:40:52;28.50;99.90
21666;DHT22;10994;45.486;9.190;2022-08-19T15:43:19;28.50;99.90
21666;DHT22;10994;45.486;9.190;2022-08-19T15:45:47;28.40;99.90